sensor_id;sensor_type;location;lat;lon;timestamp;P1;durP1;ratioP1;P2;durP2;ratioP2
57303;SDS011;43150;50.986;18.208;2023-04-25T00:02:12;8.10;;;5.40;;
57303;SDS011;43150;50.986;18.208;2023-04-25T00:04:39;7.10;;;4.70;;
57303;SDS011;43150;50.986;18.208;2023-04-25T00:07:06;6.80;;;4.90;;
57303;SDS011;43150;50.986;18.208;2023-04-25T00:09:35;12.00;;;4.60;;
57303;SDS011;43150;50.986;18.208;2023-04-25T00:12:08;8.90;;;7.40;;
57303;SDS011;43150;50.986;18.208;2023-04-25T00:14:34;7.40;;;4.90;;
57303;SDS011;43150;50.986;18.208;2023-04-25T00:17:00;8.90;;;5.50;;
57303;SDS011;43150;50.986;18.208;2023-04-25T00:19:35;5.00;;;3.70;;
57303;SDS011;43150;50.986;18.208;2023-04-25T00:22:04;5.20;;;4.00;;
57303;SDS011;43150;50.986;18.208;2023-04-25T00:24:43;6.10;;;4.00;;
57303;SDS011;43150;50.986;18.208;2023-04-25T00:27:08;6.40;;;5.30;;
57303;SDS011;43150;50.986;18.208;2023-04-25T00:29:34;5.20;;;4.80;;
57303;SDS011;43150;50.986;18.208;2023-04-25T00:32:00;6.50;;;3.40;;
57303;SDS011;43150;50.986;18.208;2023-04-25T00:34:27;3.60;;;2.70;;
57303;SDS011;43150;50.986;18.208;2023-04-25T00:37:02;3.50;;;2.50;;
57303;SDS011;43150;50.986;18.208;2023-04-25T00:39:29;3.60;;;2.30;;
57303;SDS011;43150;50.986;18.208;2023-04-25T00:41:58;3.40;;;2.30;;
57303;SDS011;43150;50.986;18.208;2023-04-25T00:44:24;3.20;;;2.00;;
57303;SDS011;43150;50.986;18.208;2023-04-25T00:46:51;4.10;;;1.90;;
57303;SDS011;43150;50.986;18.208;2023-04-25T00:49:17;3.50;;;2.30;;
57303;SDS011;43150;50.986;18.208;2023-04-25T00:51:43;4.10;;;1.80;;
57303;SDS011;43150;50.986;18.208;2023-04-25T00:54:13;1.50;;;1.40;;
57303;SDS011;43150;50.986;18.208;2023-04-25T00:56:38;2.70;;;1.30;;
57303;SDS011;43150;50.986;18.208;2023-04-25T00:59:04;1.50;;;1.40;;
57303;SDS011;43150;50.986;18.208;2023-04-25T01:01:30;3.00;;;1.60;;
57303;SDS011;43150;50.986;18.208;2023-04-25T01:04:04;3.10;;;1.30;;
57303;SDS011;43150;50.986;18.208;2023-04-25T01:06:30;5.50;;;1.60;;
57303;SDS011;43150;50.986;18.208;2023-04-25T01:08:57;1.60;;;1.40;;
57303;SDS011;43150;50.986;18.208;2023-04-25T01:11:22;1.70;;;1.40;;
57303;SDS011;43150;50.986;18.208;2023-04-25T01:13:48;2.50;;;1.40;;
57303;SDS011;43150;50.986;18.208;2023-04-25T01:16:16;1.70;;;1.50;;
57303;SDS011;43150;50.986;18.208;2023-04-25T01:18:45;1.70;;;1.10;;
57303;SDS011;43150;50.986;18.208;2023-04-25T01:21:12;1.60;;;1.40;;
57303;SDS011;43150;50.986;18.208;2023-04-25T01:23:39;4.80;;;1.60;;
57303;SDS011;43150;50.986;18.208;2023-04-25T01:26:05;4.20;;;1.50;;
57303;SDS011;43150;50.986;18.208;2023-04-25T01:28:31;2.10;;;1.30;;
57303;SDS011;43150;50.986;18.208;2023-04-25T01:30:58;3.10;;;1.30;;
57303;SDS011;43150;50.986;18.208;2023-04-25T01:33:24;1.50;;;1.20;;
57303;SDS011;43150;50.986;18.208;2023-04-25T01:35:50;2.20;;;1.40;;
57303;SDS011;43150;50.986;18.208;2023-04-25T01:38:16;1.80;;;1.10;;
57303;SDS011;43150;50.986;18.208;2023-04-25T01:40:41;2.30;;;1.10;;
57303;SDS011;43150;50.986;18.208;2023-04-25T01:43:09;4.50;;;1.40;;
57303;SDS011;43150;50.986;18.208;2023-04-25T01:45:37;4.10;;;1.40;;
57303;SDS011;43150;50.986;18.208;2023-04-25T01:48:07;1.50;;;1.20;;
57303;SDS011;43150;50.986;18.208;2023-04-25T01:50:32;2.30;;;1.20;;
57303;SDS011;43150;50.986;18.208;2023-04-25T01:52:58;1.70;;;1.20;;
57303;SDS011;43150;50.986;18.208;2023-04-25T01:55:23;1.20;;;1.10;;
57303;SDS011;43150;50.986;18.208;2023-04-25T01:57:50;2.60;;;1.00;;
57303;SDS011;43150;50.986;18.208;2023-04-25T02:00:16;1.80;;;0.80;;
57303;SDS011;43150;50.986;18.208;2023-04-25T02:02:58;3.10;;;1.50;;
57303;SDS011;43150;50.986;18.208;2023-04-25T02:05:23;1.40;;;1.20;;
57303;SDS011;43150;50.986;18.208;2023-04-25T02:07:57;3.20;;;1.30;;
57303;SDS011;43150;50.986;18.208;2023-04-25T02:10:23;2.50;;;1.00;;
57303;SDS011;43150;50.986;18.208;2023-04-25T02:12:51;1.90;;;1.50;;
57303;SDS011;43150;50.986;18.208;2023-04-25T02:15:21;1.70;;;1.50;;
57303;SDS011;43150;50.986;18.208;2023-04-25T02:17:46;2.80;;;1.10;;
57303;SDS011;43150;50.986;18.208;2023-04-25T02:20:12;2.00;;;1.30;;
57303;SDS011;43150;50.986;18.208;2023-04-25T02:22:38;1.80;;;1.10;;
57303;SDS011;43150;50.986;18.208;2023-04-25T02:25:03;2.00;;;1.50;;
57303;SDS011;43150;50.986;18.208;2023-04-25T02:27:30;2.10;;;0.90;;
57303;SDS011;43150;50.986;18.208;2023-04-25T02:29:56;2.40;;;1.60;;
57303;SDS011;43150;50.986;18.208;2023-04-25T02:32:22;1.50;;;1.30;;
57303;SDS011;43150;50.986;18.208;2023-04-25T02:34:47;2.20;;;1.40;;
57303;SDS011;43150;50.986;18.208;2023-04-25T02:37:13;1.60;;;1.20;;
57303;SDS011;43150;50.986;18.208;2023-04-25T02:39:38;2.20;;;1.00;;
57303;SDS011;43150;50.986;18.208;2023-04-25T02:42:11;1.70;;;1.40;;
57303;SDS011;43150;50.986;18.208;2023-04-25T02:44:37;1.60;;;1.50;;
57303;SDS011;43150;50.986;18.208;2023-04-25T02:47:02;2.50;;;1.40;;
57303;SDS011;43150;50.986;18.208;2023-04-25T02:49:28;1.50;;;1.10;;
57303;SDS011;43150;50.986;18.208;2023-04-25T02:51:56;1.90;;;1.20;;
57303;SDS011;43150;50.986;18.208;2023-04-25T02:54:21;2.40;;;1.30;;
57303;SDS011;43150;50.986;18.208;2023-04-25T02:56:46;1.80;;;1.40;;
57303;SDS011;43150;50.986;18.208;2023-04-25T02:59:12;1.60;;;1.50;;
57303;SDS011;43150;50.986;18.208;2023-04-25T03:01:37;3.60;;;1.50;;
57303;SDS011;43150;50.986;18.208;2023-04-25T03:04:03;1.50;;;1.20;;
57303;SDS011;43150;50.986;18.208;2023-04-25T03:06:28;1.80;;;1.40;;
57303;SDS011;43150;50.986;18.208;2023-04-25T03:08:54;2.20;;;1.70;;
57303;SDS011;43150;50.986;18.208;2023-04-25T03:11:20;3.40;;;1.90;;
57303;SDS011;43150;50.986;18.208;2023-04-25T03:13:45;3.50;;;1.90;;
57303;SDS011;43150;50.986;18.208;2023-04-25T03:16:11;2.30;;;1.90;;
57303;SDS011;43150;50.986;18.208;2023-04-25T03:18:36;1.60;;;1.40;;
57303;SDS011;43150;50.986;18.208;2023-04-25T03:21:02;3.40;;;2.70;;
57303;SDS011;43150;50.986;18.208;2023-04-25T03:23:28;4.30;;;2.10;;
57303;SDS011;43150;50.986;18.208;2023-04-25T03:25:53;2.40;;;1.90;;
57303;SDS011;43150;50.986;18.208;2023-04-25T03:28:18;4.20;;;2.30;;
57303;SDS011;43150;50.986;18.208;2023-04-25T03:30:45;2.20;;;1.90;;
57303;SDS011;43150;50.986;18.208;2023-04-25T03:33:10;3.10;;;2.10;;
57303;SDS011;43150;50.986;18.208;2023-04-25T03:35:36;2.50;;;2.20;;
57303;SDS011;43150;50.986;18.208;2023-04-25T03:38:01;2.10;;;1.90;;
57303;SDS011;43150;50.986;18.208;2023-04-25T03:40:27;2.30;;;1.80;;
57303;SDS011;43150;50.986;18.208;2023-04-25T03:42:52;4.20;;;2.30;;
57303;SDS011;43150;50.986;18.208;2023-04-25T03:45:21;3.40;;;1.90;;
57303;SDS011;43150;50.986;18.208;2023-04-25T03:47:47;2.10;;;1.80;;
57303;SDS011;43150;50.986;18.208;2023-04-25T03:50:12;1.80;;;1.70;;
57303;SDS011;43150;50.986;18.208;2023-04-25T03:52:38;2.50;;;1.40;;
57303;SDS011;43150;50.986;18.208;2023-04-25T03:55:04;2.20;;;1.30;;
57303;SDS011;43150;50.986;18.208;2023-04-25T03:57:29;1.50;;;1.30;;
57303;SDS011;43150;50.986;18.208;2023-04-25T03:59:55;6.10;;;2.70;;
57303;SDS011;43150;50.986;18.208;2023-04-25T04:02:21;2.90;;;2.50;;
57303;SDS011;43150;50.986;18.208;2023-04-25T04:04:46;3.90;;;1.90;;
57303;SDS011;43150;50.986;18.208;2023-04-25T04:07:12;2.20;;;1.70;;
57303;SDS011;43150;50.986;18.208;2023-04-25T04:09:38;2.20;;;1.90;;
57303;SDS011;43150;50.986;18.208;2023-04-25T04:12:03;1.50;;;1.40;;
57303;SDS011;43150;50.986;18.208;2023-04-25T04:14:37;2.30;;;1.50;;
57303;SDS011;43150;50.986;18.208;2023-04-25T04:17:02;2.80;;;1.40;;
57303;SDS011;43150;50.986;18.208;2023-04-25T04:19:28;2.90;;;1.50;;
57303;SDS011;43150;50.986;18.208;2023-04-25T04:21:53;2.20;;;1.50;;
57303;SDS011;43150;50.986;18.208;2023-04-25T04:24:19;2.00;;;1.70;;
57303;SDS011;43150;50.986;18.208;2023-04-25T04:26:44;3.40;;;2.20;;
57303;SDS011;43150;50.986;18.208;2023-04-25T04:29:11;3.20;;;2.20;;
57303;SDS011;43150;50.986;18.208;2023-04-25T04:31:38;2.80;;;2.10;;
57303;SDS011;43150;50.986;18.208;2023-04-25T04:34:04;2.80;;;2.10;;
57303;SDS011;43150;50.986;18.208;2023-04-25T04:36:29;3.80;;;2.50;;
57303;SDS011;43150;50.986;18.208;2023-04-25T04:38:55;3.80;;;2.60;;
57303;SDS011;43150;50.986;18.208;2023-04-25T04:41:21;3.90;;;2.30;;
57303;SDS011;43150;50.986;18.208;2023-04-25T04:43:48;3.40;;;2.30;;
57303;SDS011;43150;50.986;18.208;2023-04-25T04:46:14;2.40;;;1.90;;
57303;SDS011;43150;50.986;18.208;2023-04-25T04:48:39;3.90;;;2.10;;
57303;SDS011;43150;50.986;18.208;2023-04-25T04:51:06;3.40;;;1.90;;
57303;SDS011;43150;50.986;18.208;2023-04-25T04:53:32;3.00;;;2.40;;
57303;SDS011;43150;50.986;18.208;2023-04-25T04:55:57;4.20;;;3.60;;
57303;SDS011;43150;50.986;18.208;2023-04-25T04:58:24;4.10;;;3.50;;
57303;SDS011;43150;50.986;18.208;2023-04-25T05:00:50;4.00;;;2.70;;
57303;SDS011;43150;50.986;18.208;2023-04-25T05:03:15;4.50;;;2.70;;
57303;SDS011;43150;50.986;18.208;2023-04-25T05:05:41;7.90;;;3.70;;
57303;SDS011;43150;50.986;18.208;2023-04-25T05:08:07;6.90;;;3.20;;
57303;SDS011;43150;50.986;18.208;2023-04-25T05:10:33;5.50;;;2.80;;
57303;SDS011;43150;50.986;18.208;2023-04-25T05:13:01;3.70;;;2.90;;
57303;SDS011;43150;50.986;18.208;2023-04-25T05:15:27;5.20;;;2.90;;
57303;SDS011;43150;50.986;18.208;2023-04-25T05:17:52;6.60;;;3.60;;
57303;SDS011;43150;50.986;18.208;2023-04-25T05:20:18;4.10;;;3.40;;
57303;SDS011;43150;50.986;18.208;2023-04-25T05:22:46;2.90;;;2.50;;
57303;SDS011;43150;50.986;18.208;2023-04-25T05:25:11;5.00;;;2.00;;
57303;SDS011;43150;50.986;18.208;2023-04-25T05:27:37;3.00;;;2.30;;
57303;SDS011;43150;50.986;18.208;2023-04-25T05:30:02;4.70;;;2.70;;
57303;SDS011;43150;50.986;18.208;2023-04-25T05:32:28;5.60;;;4.10;;
57303;SDS011;43150;50.986;18.208;2023-04-25T05:34:54;3.60;;;3.00;;
57303;SDS011;43150;50.986;18.208;2023-04-25T05:37:22;3.80;;;2.50;;
57303;SDS011;43150;50.986;18.208;2023-04-25T05:39:47;4.70;;;2.70;;
57303;SDS011;43150;50.986;18.208;2023-04-25T05:42:13;3.60;;;2.60;;
57303;SDS011;43150;50.986;18.208;2023-04-25T05:44:44;4.90;;;4.40;;
57303;SDS011;43150;50.986;18.208;2023-04-25T05:47:10;5.50;;;4.40;;
57303;SDS011;43150;50.986;18.208;2023-04-25T05:49:35;5.40;;;4.90;;
57303;SDS011;43150;50.986;18.208;2023-04-25T05:52:01;5.50;;;4.50;;
57303;SDS011;43150;50.986;18.208;2023-04-25T05:54:27;5.80;;;5.00;;
57303;SDS011;43150;50.986;18.208;2023-04-25T05:56:52;6.00;;;3.30;;
57303;SDS011;43150;50.986;18.208;2023-04-25T05:59:18;3.70;;;3.10;;
57303;SDS011;43150;50.986;18.208;2023-04-25T06:01:43;6.70;;;5.10;;
57303;SDS011;43150;50.986;18.208;2023-04-25T06:04:15;5.80;;;5.10;;
57303;SDS011;43150;50.986;18.208;2023-04-25T06:06:40;5.20;;;3.70;;
57303;SDS011;43150;50.986;18.208;2023-04-25T06:09:06;6.20;;;5.00;;
57303;SDS011;43150;50.986;18.208;2023-04-25T06:11:31;6.90;;;5.50;;
57303;SDS011;43150;50.986;18.208;2023-04-25T06:13:57;5.90;;;5.20;;
57303;SDS011;43150;50.986;18.208;2023-04-25T06:16:22;5.70;;;5.20;;
57303;SDS011;43150;50.986;18.208;2023-04-25T06:18:51;5.30;;;4.80;;
57303;SDS011;43150;50.986;18.208;2023-04-25T06:21:16;5.90;;;4.80;;
57303;SDS011;43150;50.986;18.208;2023-04-25T06:23:42;5.80;;;5.20;;
57303;SDS011;43150;50.986;18.208;2023-04-25T06:26:07;5.60;;;5.00;;
57303;SDS011;43150;50.986;18.208;2023-04-25T06:28:33;5.80;;;4.90;;
57303;SDS011;43150;50.986;18.208;2023-04-25T06:30:59;6.30;;;5.10;;
57303;SDS011;43150;50.986;18.208;2023-04-25T06:33:24;6.80;;;4.90;;
57303;SDS011;43150;50.986;18.208;2023-04-25T06:35:50;6.60;;;5.00;;
57303;SDS011;43150;50.986;18.208;2023-04-25T06:38:18;6.40;;;4.70;;
57303;SDS011;43150;50.986;18.208;2023-04-25T06:40:43;6.10;;;5.00;;
57303;SDS011;43150;50.986;18.208;2023-04-25T06:43:09;7.70;;;4.50;;
57303;SDS011;43150;50.986;18.208;2023-04-25T06:45:37;5.70;;;4.60;;
57303;SDS011;43150;50.986;18.208;2023-04-25T06:48:02;5.50;;;4.80;;
57303;SDS011;43150;50.986;18.208;2023-04-25T06:50:28;5.00;;;4.50;;
57303;SDS011;43150;50.986;18.208;2023-04-25T06:52:53;5.80;;;5.00;;
57303;SDS011;43150;50.986;18.208;2023-04-25T06:55:19;6.10;;;5.10;;
57303;SDS011;43150;50.986;18.208;2023-04-25T06:57:45;5.60;;;4.70;;
57303;SDS011;43150;50.986;18.208;2023-04-25T07:00:10;5.00;;;4.50;;
57303;SDS011;43150;50.986;18.208;2023-04-25T07:02:39;6.00;;;4.60;;
57303;SDS011;43150;50.986;18.208;2023-04-25T07:05:07;5.00;;;4.50;;
57303;SDS011;43150;50.986;18.208;2023-04-25T07:07:33;5.70;;;4.50;;
57303;SDS011;43150;50.986;18.208;2023-04-25T07:09:58;6.20;;;4.90;;
57303;SDS011;43150;50.986;18.208;2023-04-25T07:12:24;6.20;;;4.40;;
57303;SDS011;43150;50.986;18.208;2023-04-25T07:14:49;4.90;;;4.50;;
57303;SDS011;43150;50.986;18.208;2023-04-25T07:17:15;5.30;;;4.50;;
57303;SDS011;43150;50.986;18.208;2023-04-25T07:19:41;6.00;;;5.30;;
57303;SDS011;43150;50.986;18.208;2023-04-25T07:22:10;4.70;;;4.10;;
57303;SDS011;43150;50.986;18.208;2023-04-25T07:24:35;5.40;;;4.90;;
57303;SDS011;43150;50.986;18.208;2023-04-25T07:27:01;5.90;;;4.60;;
57303;SDS011;43150;50.986;18.208;2023-04-25T07:29:27;4.80;;;4.30;;
57303;SDS011;43150;50.986;18.208;2023-04-25T07:31:58;5.80;;;4.40;;
57303;SDS011;43150;50.986;18.208;2023-04-25T07:34:24;4.40;;;4.00;;
57303;SDS011;43150;50.986;18.208;2023-04-25T07:36:54;5.90;;;4.40;;
57303;SDS011;43150;50.986;18.208;2023-04-25T07:39:20;7.70;;;4.50;;
57303;SDS011;43150;50.986;18.208;2023-04-25T07:41:45;6.90;;;4.90;;
57303;SDS011;43150;50.986;18.208;2023-04-25T07:44:11;6.30;;;4.70;;
57303;SDS011;43150;50.986;18.208;2023-04-25T07:46:39;4.90;;;4.20;;
57303;SDS011;43150;50.986;18.208;2023-04-25T07:49:05;4.40;;;4.00;;
57303;SDS011;43150;50.986;18.208;2023-04-25T07:51:31;4.70;;;4.20;;
57303;SDS011;43150;50.986;18.208;2023-04-25T07:53:56;4.60;;;4.00;;
57303;SDS011;43150;50.986;18.208;2023-04-25T07:56:22;5.70;;;4.80;;
57303;SDS011;43150;50.986;18.208;2023-04-25T07:58:48;6.90;;;4.90;;
57303;SDS011;43150;50.986;18.208;2023-04-25T08:01:13;5.40;;;4.50;;
57303;SDS011;43150;50.986;18.208;2023-04-25T08:03:39;6.20;;;4.60;;
57303;SDS011;43150;50.986;18.208;2023-04-25T08:06:05;5.80;;;4.70;;
57303;SDS011;43150;50.986;18.208;2023-04-25T08:08:31;5.40;;;4.20;;
57303;SDS011;43150;50.986;18.208;2023-04-25T08:11:00;5.00;;;4.50;;
57303;SDS011;43150;50.986;18.208;2023-04-25T08:13:25;5.50;;;4.50;;
57303;SDS011;43150;50.986;18.208;2023-04-25T08:15:51;5.30;;;4.80;;
57303;SDS011;43150;50.986;18.208;2023-04-25T08:18:16;5.60;;;5.00;;
57303;SDS011;43150;50.986;18.208;2023-04-25T08:20:44;5.00;;;4.50;;
57303;SDS011;43150;50.986;18.208;2023-04-25T08:23:10;4.80;;;4.30;;
57303;SDS011;43150;50.986;18.208;2023-04-25T08:25:36;5.40;;;4.70;;
57303;SDS011;43150;50.986;18.208;2023-04-25T08:28:02;5.40;;;4.80;;
57303;SDS011;43150;50.986;18.208;2023-04-25T08:30:28;5.50;;;4.20;;
57303;SDS011;43150;50.986;18.208;2023-04-25T08:32:54;5.70;;;4.10;;
57303;SDS011;43150;50.986;18.208;2023-04-25T08:35:20;7.40;;;3.90;;
57303;SDS011;43150;50.986;18.208;2023-04-25T08:37:45;4.80;;;4.00;;
57303;SDS011;43150;50.986;18.208;2023-04-25T08:40:15;6.80;;;3.70;;
57303;SDS011;43150;50.986;18.208;2023-04-25T08:42:41;4.40;;;3.30;;
57303;SDS011;43150;50.986;18.208;2023-04-25T08:45:07;4.30;;;3.70;;
57303;SDS011;43150;50.986;18.208;2023-04-25T08:47:37;4.30;;;3.00;;
57303;SDS011;43150;50.986;18.208;2023-04-25T08:50:03;5.40;;;3.10;;
57303;SDS011;43150;50.986;18.208;2023-04-25T08:52:32;3.40;;;2.30;;
57303;SDS011;43150;50.986;18.208;2023-04-25T08:55:00;4.00;;;2.80;;
57303;SDS011;43150;50.986;18.208;2023-04-25T08:57:26;3.70;;;2.70;;
57303;SDS011;43150;50.986;18.208;2023-04-25T08:59:56;3.40;;;2.50;;
57303;SDS011;43150;50.986;18.208;2023-04-25T09:02:22;5.60;;;2.50;;
57303;SDS011;43150;50.986;18.208;2023-04-25T09:04:57;3.90;;;2.70;;
57303;SDS011;43150;50.986;18.208;2023-04-25T09:07:22;4.80;;;2.70;;
57303;SDS011;43150;50.986;18.208;2023-04-25T09:09:51;4.70;;;2.90;;
57303;SDS011;43150;50.986;18.208;2023-04-25T09:12:18;5.60;;;2.80;;
57303;SDS011;43150;50.986;18.208;2023-04-25T09:17:28;6.70;;;2.90;;
57303;SDS011;43150;50.986;18.208;2023-04-25T09:19:54;3.40;;;2.70;;
57303;SDS011;43150;50.986;18.208;2023-04-25T09:22:19;3.70;;;2.50;;
57303;SDS011;43150;50.986;18.208;2023-04-25T09:24:49;4.50;;;2.90;;
57303;SDS011;43150;50.986;18.208;2023-04-25T09:27:19;5.30;;;2.90;;
57303;SDS011;43150;50.986;18.208;2023-04-25T09:29:56;5.40;;;3.20;;
57303;SDS011;43150;50.986;18.208;2023-04-25T09:32:23;4.40;;;2.60;;
57303;SDS011;43150;50.986;18.208;2023-04-25T09:34:49;4.30;;;2.60;;
57303;SDS011;43150;50.986;18.208;2023-04-25T09:37:28;4.90;;;2.60;;
57303;SDS011;43150;50.986;18.208;2023-04-25T09:39:58;3.30;;;2.40;;
57303;SDS011;43150;50.986;18.208;2023-04-25T09:42:30;3.70;;;2.60;;
57303;SDS011;43150;50.986;18.208;2023-04-25T09:44:57;2.90;;;2.20;;
57303;SDS011;43150;50.986;18.208;2023-04-25T09:47:24;4.10;;;2.70;;
57303;SDS011;43150;50.986;18.208;2023-04-25T09:49:50;4.80;;;2.30;;
57303;SDS011;43150;50.986;18.208;2023-04-25T09:52:16;4.80;;;2.70;;
57303;SDS011;43150;50.986;18.208;2023-04-25T09:54:42;4.10;;;2.80;;
57303;SDS011;43150;50.986;18.208;2023-04-25T09:57:13;9.80;;;3.20;;
57303;SDS011;43150;50.986;18.208;2023-04-25T09:59:45;5.50;;;3.00;;
57303;SDS011;43150;50.986;18.208;2023-04-25T10:02:12;4.40;;;3.20;;
57303;SDS011;43150;50.986;18.208;2023-04-25T10:04:38;3.50;;;2.50;;
57303;SDS011;43150;50.986;18.208;2023-04-25T10:07:07;4.60;;;2.90;;
57303;SDS011;43150;50.986;18.208;2023-04-25T10:09:33;4.00;;;3.10;;
57303;SDS011;43150;50.986;18.208;2023-04-25T10:12:02;3.50;;;3.20;;
57303;SDS011;43150;50.986;18.208;2023-04-25T10:14:31;3.80;;;3.30;;
57303;SDS011;43150;50.986;18.208;2023-04-25T10:17:00;4.20;;;3.10;;
57303;SDS011;43150;50.986;18.208;2023-04-25T10:19:26;5.00;;;4.00;;
57303;SDS011;43150;50.986;18.208;2023-04-25T10:22:11;38.80;;;6.90;;
57303;SDS011;43150;50.986;18.208;2023-04-25T10:24:38;4.70;;;3.80;;
57303;SDS011;43150;50.986;18.208;2023-04-25T10:27:04;5.70;;;3.70;;
57303;SDS011;43150;50.986;18.208;2023-04-25T10:29:31;7.00;;;4.50;;
57303;SDS011;43150;50.986;18.208;2023-04-25T10:31:56;6.30;;;4.20;;
57303;SDS011;43150;50.986;18.208;2023-04-25T10:34:37;5.30;;;4.20;;
57303;SDS011;43150;50.986;18.208;2023-04-25T10:37:05;4.80;;;3.70;;
57303;SDS011;43150;50.986;18.208;2023-04-25T10:39:33;7.80;;;3.60;;
57303;SDS011;43150;50.986;18.208;2023-04-25T10:41:59;6.10;;;4.40;;
57303;SDS011;43150;50.986;18.208;2023-04-25T10:44:30;6.70;;;4.60;;
57303;SDS011;43150;50.986;18.208;2023-04-25T10:47:00;5.30;;;3.80;;
57303;SDS011;43150;50.986;18.208;2023-04-25T10:49:41;5.30;;;4.00;;
57303;SDS011;43150;50.986;18.208;2023-04-25T10:52:11;5.50;;;4.00;;
57303;SDS011;43150;50.986;18.208;2023-04-25T10:54:41;5.40;;;3.80;;
57303;SDS011;43150;50.986;18.208;2023-04-25T10:57:07;4.80;;;3.30;;
57303;SDS011;43150;50.986;18.208;2023-04-25T10:59:34;4.40;;;3.80;;
57303;SDS011;43150;50.986;18.208;2023-04-25T11:02:00;4.90;;;3.50;;
57303;SDS011;43150;50.986;18.208;2023-04-25T11:04:36;5.80;;;4.40;;
57303;SDS011;43150;50.986;18.208;2023-04-25T11:09:48;3.80;;;3.40;;
57303;SDS011;43150;50.986;18.208;2023-04-25T11:12:16;8.40;;;4.40;;
57303;SDS011;43150;50.986;18.208;2023-04-25T11:14:42;5.40;;;3.60;;
57303;SDS011;43150;50.986;18.208;2023-04-25T11:17:08;4.00;;;3.50;;
57303;SDS011;43150;50.986;18.208;2023-04-25T11:19:34;3.70;;;3.30;;
57303;SDS011;43150;50.986;18.208;2023-04-25T11:22:00;4.60;;;3.20;;
57303;SDS011;43150;50.986;18.208;2023-04-25T11:24:27;3.50;;;3.20;;
57303;SDS011;43150;50.986;18.208;2023-04-25T11:26:53;4.90;;;3.50;;
57303;SDS011;43150;50.986;18.208;2023-04-25T11:29:27;4.10;;;3.20;;
57303;SDS011;43150;50.986;18.208;2023-04-25T11:31:54;4.90;;;3.90;;
57303;SDS011;43150;50.986;18.208;2023-04-25T11:34:23;5.40;;;4.10;;
57303;SDS011;43150;50.986;18.208;2023-04-25T11:36:49;6.70;;;4.20;;
57303;SDS011;43150;50.986;18.208;2023-04-25T11:39:15;4.90;;;3.50;;
57303;SDS011;43150;50.986;18.208;2023-04-25T11:41:41;5.30;;;3.60;;
57303;SDS011;43150;50.986;18.208;2023-04-25T11:44:07;4.40;;;4.00;;
57303;SDS011;43150;50.986;18.208;2023-04-25T11:46:35;5.70;;;3.90;;
57303;SDS011;43150;50.986;18.208;2023-04-25T11:49:02;4.90;;;3.80;;
57303;SDS011;43150;50.986;18.208;2023-04-25T11:51:37;4.40;;;3.70;;
57303;SDS011;43150;50.986;18.208;2023-04-25T11:54:03;4.00;;;3.50;;
57303;SDS011;43150;50.986;18.208;2023-04-25T11:56:30;4.60;;;4.10;;
57303;SDS011;43150;50.986;18.208;2023-04-25T11:58:57;5.10;;;3.80;;
57303;SDS011;43150;50.986;18.208;2023-04-25T12:03:51;5.40;;;3.60;;
57303;SDS011;43150;50.986;18.208;2023-04-25T12:06:17;5.70;;;4.50;;
57303;SDS011;43150;50.986;18.208;2023-04-25T12:08:58;5.30;;;4.20;;
57303;SDS011;43150;50.986;18.208;2023-04-25T12:11:24;5.70;;;4.70;;
57303;SDS011;43150;50.986;18.208;2023-04-25T12:13:51;4.70;;;4.20;;
57303;SDS011;43150;50.986;18.208;2023-04-25T12:16:18;5.80;;;4.50;;
57303;SDS011;43150;50.986;18.208;2023-04-25T12:18:46;6.10;;;3.90;;
57303;SDS011;43150;50.986;18.208;2023-04-25T12:21:13;5.00;;;4.20;;
57303;SDS011;43150;50.986;18.208;2023-04-25T12:23:38;5.70;;;3.70;;
57303;SDS011;43150;50.986;18.208;2023-04-25T12:26:05;4.30;;;3.30;;
57303;SDS011;43150;50.986;18.208;2023-04-25T12:28:31;3.70;;;3.10;;
57303;SDS011;43150;50.986;18.208;2023-04-25T12:33:24;4.20;;;3.30;;
57303;SDS011;43150;50.986;18.208;2023-04-25T12:35:50;3.50;;;2.80;;
57303;SDS011;43150;50.986;18.208;2023-04-25T12:40:47;4.00;;;2.90;;
57303;SDS011;43150;50.986;18.208;2023-04-25T12:43:13;3.50;;;2.70;;
57303;SDS011;43150;50.986;18.208;2023-04-25T12:45:38;2.50;;;2.20;;
57303;SDS011;43150;50.986;18.208;2023-04-25T12:48:08;3.40;;;2.40;;
57303;SDS011;43150;50.986;18.208;2023-04-25T12:50:33;3.70;;;2.60;;
57303;SDS011;43150;50.986;18.208;2023-04-25T12:52:59;4.80;;;2.30;;
57303;SDS011;43150;50.986;18.208;2023-04-25T12:55:25;4.00;;;2.40;;
57303;SDS011;43150;50.986;18.208;2023-04-25T12:57:51;3.30;;;2.10;;
57303;SDS011;43150;50.986;18.208;2023-04-25T13:00:16;3.70;;;1.80;;
57303;SDS011;43150;50.986;18.208;2023-04-25T13:02:45;2.10;;;1.50;;
57303;SDS011;43150;50.986;18.208;2023-04-25T13:05:12;3.70;;;1.70;;
57303;SDS011;43150;50.986;18.208;2023-04-25T13:07:38;5.10;;;1.50;;
57303;SDS011;43150;50.986;18.208;2023-04-25T13:10:04;11.10;;;1.80;;
57303;SDS011;43150;50.986;18.208;2023-04-25T13:12:33;3.00;;;1.60;;
57303;SDS011;43150;50.986;18.208;2023-04-25T13:14:59;4.00;;;1.90;;
57303;SDS011;43150;50.986;18.208;2023-04-25T13:17:24;5.30;;;1.80;;
57303;SDS011;43150;50.986;18.208;2023-04-25T13:19:50;2.30;;;1.50;;
57303;SDS011;43150;50.986;18.208;2023-04-25T13:22:15;3.00;;;1.50;;
57303;SDS011;43150;50.986;18.208;2023-04-25T13:24:42;2.70;;;1.50;;
57303;SDS011;43150;50.986;18.208;2023-04-25T13:27:08;3.10;;;1.60;;
57303;SDS011;43150;50.986;18.208;2023-04-25T13:29:34;2.80;;;2.00;;
57303;SDS011;43150;50.986;18.208;2023-04-25T13:32:01;5.70;;;1.90;;
57303;SDS011;43150;50.986;18.208;2023-04-25T13:34:29;3.40;;;1.30;;
57303;SDS011;43150;50.986;18.208;2023-04-25T13:36:56;1.90;;;1.20;;
57303;SDS011;43150;50.986;18.208;2023-04-25T13:39:22;5.30;;;1.30;;
57303;SDS011;43150;50.986;18.208;2023-04-25T13:41:48;1.20;;;1.10;;
57303;SDS011;43150;50.986;18.208;2023-04-25T13:44:13;1.90;;;1.10;;
57303;SDS011;43150;50.986;18.208;2023-04-25T13:46:39;1.80;;;1.10;;
57303;SDS011;43150;50.986;18.208;2023-04-25T13:49:05;2.10;;;1.30;;
57303;SDS011;43150;50.986;18.208;2023-04-25T13:51:30;4.50;;;1.40;;
57303;SDS011;43150;50.986;18.208;2023-04-25T13:53:56;2.70;;;1.20;;
57303;SDS011;43150;50.986;18.208;2023-04-25T13:56:22;2.50;;;1.40;;
57303;SDS011;43150;50.986;18.208;2023-04-25T13:58:51;3.40;;;1.30;;
57303;SDS011;43150;50.986;18.208;2023-04-25T14:01:17;1.90;;;1.30;;
57303;SDS011;43150;50.986;18.208;2023-04-25T14:03:43;2.50;;;1.30;;
57303;SDS011;43150;50.986;18.208;2023-04-25T14:06:13;2.40;;;1.60;;
57303;SDS011;43150;50.986;18.208;2023-04-25T14:08:42;3.90;;;1.40;;
57303;SDS011;43150;50.986;18.208;2023-04-25T14:11:07;2.30;;;1.10;;
57303;SDS011;43150;50.986;18.208;2023-04-25T14:13:33;2.00;;;1.10;;
57303;SDS011;43150;50.986;18.208;2023-04-25T14:15:58;3.40;;;1.40;;
57303;SDS011;43150;50.986;18.208;2023-04-25T14:18:24;6.10;;;1.60;;
57303;SDS011;43150;50.986;18.208;2023-04-25T14:20:50;2.10;;;1.30;;
57303;SDS011;43150;50.986;18.208;2023-04-25T14:23:22;2.10;;;1.50;;
57303;SDS011;43150;50.986;18.208;2023-04-25T14:25:47;3.80;;;2.10;;
57303;SDS011;43150;50.986;18.208;2023-04-25T14:28:13;3.20;;;1.40;;
57303;SDS011;43150;50.986;18.208;2023-04-25T14:30:38;3.20;;;1.50;;
57303;SDS011;43150;50.986;18.208;2023-04-25T14:33:04;3.70;;;1.40;;
57303;SDS011;43150;50.986;18.208;2023-04-25T14:35:30;5.70;;;1.50;;
57303;SDS011;43150;50.986;18.208;2023-04-25T14:37:56;5.10;;;1.50;;
57303;SDS011;43150;50.986;18.208;2023-04-25T14:40:22;1.70;;;1.30;;
57303;SDS011;43150;50.986;18.208;2023-04-25T14:42:48;3.20;;;1.50;;
57303;SDS011;43150;50.986;18.208;2023-04-25T14:45:20;2.30;;;1.40;;